Schefferville, Canada
Current Conditions -  °F | °C
As of 1:00 AM on Friday 31 Oct 2014 (Local Time) from CYKL Reporting Station
Overcast Overcast  
Wind Chill: -8°   Ceiling: 3000
Heat Index: -2°   Visibility: 9mi
Dew Point: -7°   Wind: 15mph
Humidity: 69%   Direction: 270°W
Pressure: 29.56"   Gusts: 29mph
Location:  54.8°N, 66.83°W
Report Text: CYKL 310500Z AUTO 27013G25KT 9SM OVC030 M02/M07 A2956 RMK SLP038
Loading
Personal Weather Stations






























Interactive Weather Map
Tropical Storm Tracking
New forecast layout! Learn more

10-Day Weather Forecast

Advertisements
Track Severe Weather on mobile